Time;durP1;ratioP1;P1;durP2;ratioP2;P2;SDS_P1;SDS_P2;PMS_P1;PMS_P2;Temp;Humidity;BMP_temperature;BMP_pressure;BME280_temperature;BME280_humidity;BME280_pressure;Samples;Min_cycle;Max_cycle;Signal;HPM_P1;HPM_P2
2021/05/26 00:01:09;;;;;;;;;;;20.70;50.10;;;;;;5032900;28;77337;-71
2021/05/26 00:03:35;;;;;;;;;;;20.70;50.40;;;;;;5032381;28;77756;-69
2021/05/26 00:06:00;;;;;;;;;;;20.70;50.90;;;;;;5032649;28;76468;-71
2021/05/26 00:08:30;;;;;;;;;;;20.70;50.70;;;;;;5032011;28;77240;-72
2021/05/26 00:10:57;;;;;;;;;;;20.60;50.80;;;;;;5032430;28;76696;-71
2021/05/26 00:13:23;;;;;;;;;;;20.60;51.00;;;;;;5032353;28;75710;-72
2021/05/26 00:15:49;;;;;;;;;;;20.60;50.90;;;;;;5034316;28;75387;-70
2021/05/26 00:18:15;;;;;;;;;;;20.60;51.40;;;;;;5032149;28;77256;-70
2021/05/26 00:20:41;;;;;;;;;;;20.60;51.10;;;;;;5032356;28;77893;-71
2021/05/26 00:23:06;;;;;;;;;;;20.60;51.50;;;;;;5033839;28;75163;-70
2021/05/26 00:25:32;;;;;;;;;;;20.50;51.80;;;;;;5033781;28;75307;-72
2021/05/26 00:27:58;;;;;;;;;;;20.50;51.60;;;;;;5032272;28;75397;-72
2021/05/26 00:30:28;;;;;;;;;;;20.40;51.70;;;;;;5033881;28;75560;-72
2021/05/26 00:32:54;;;;;;;;;;;20.40;52.00;;;;;;5033818;28;74943;-73
2021/05/26 00:35:20;;;;;;;;;;;20.40;51.80;;;;;;5032152;28;75482;-73
2021/05/26 00:37:46;;;;;;;;;;;20.30;52.20;;;;;;5033658;28;75795;-72
2021/05/26 00:40:11;;;;;;;;;;;20.30;52.40;;;;;;5032289;28;76284;-71
2021/05/26 00:42:38;;;;;;;;;;;20.30;52.40;;;;;;5032347;28;74481;-72
2021/05/26 00:45:04;;;;;;;;;;;20.30;52.50;;;;;;5033601;28;75108;-72
2021/05/26 00:47:43;;;;;;;;;;;20.30;52.20;;;;;;5033689;28;75555;-73
2021/05/26 00:50:10;;;;;;;;;;;20.20;52.60;;;;;;5032068;28;77197;-71
2021/05/26 00:52:36;;;;;;;;;;;20.30;52.60;;;;;;5033710;28;75701;-72
2021/05/26 00:55:05;;;;;;;;;;;20.20;52.60;;;;;;5032291;28;77306;-70
2021/05/26 00:57:31;;;;;;;;;;;20.30;52.70;;;;;;5033556;28;75972;-70
2021/05/26 00:59:57;;;;;;;;;;;20.20;52.70;;;;;;5031981;28;75152;-71
2021/05/26 01:02:22;;;;;;;;;;;20.20;52.60;;;;;;5033736;28;76419;-72
2021/05/26 01:04:48;;;;;;;;;;;20.20;52.90;;;;;;5033156;28;74733;-68
2021/05/26 01:07:14;;;;;;;;;;;20.20;52.90;;;;;;5033128;28;75049;-69
2021/05/26 01:09:39;;;;;;;;;;;20.20;53.00;;;;;;5033448;28;75269;-71
2021/05/26 01:12:05;;;;;;;;;;;20.10;53.00;;;;;;5032739;28;75240;-71
2021/05/26 01:14:31;;;;;;;;;;;20.00;53.10;;;;;;5032909;28;74479;-70
2021/05/26 01:16:56;;;;;;;;;;;19.90;53.40;;;;;;5031495;28;76352;-71
2021/05/26 01:19:22;;;;;;;;;;;19.90;53.60;;;;;;5033257;28;75025;-68
2021/05/26 01:21:51;;;;;;;;;;;19.90;53.60;;;;;;5031640;28;77932;-69
2021/05/26 01:24:17;;;;;;;;;;;19.90;53.70;;;;;;5032989;28;75164;-70
2021/05/26 01:26:46;;;;;;;;;;;19.80;53.70;;;;;;5031517;28;77959;-68
2021/05/26 01:29:13;;;;;;;;;;;19.80;53.90;;;;;;5032976;28;75084;-71
2021/05/26 01:31:38;;;;;;;;;;;19.80;54.10;;;;;;5031454;28;75301;-67
2021/05/26 01:34:04;;;;;;;;;;;19.70;54.10;;;;;;5031529;28;76870;-67
2021/05/26 01:36:32;;;;;;;;;;;19.70;54.10;;;;;;5031300;28;74625;-70
2021/05/26 01:38:58;;;;;;;;;;;19.70;54.40;;;;;;5031618;28;75579;-68
2021/05/26 01:41:24;;;;;;;;;;;19.70;54.40;;;;;;5032668;28;74513;-68
2021/05/26 01:43:49;;;;;;;;;;;19.60;54.00;;;;;;5033771;28;74426;-71
2021/05/26 01:46:16;;;;;;;;;;;19.60;54.60;;;;;;5032868;28;75067;-69
2021/05/26 01:48:45;;;;;;;;;;;19.50;54.60;;;;;;5031156;28;77769;-70
2021/05/26 01:51:11;;;;;;;;;;;19.50;54.70;;;;;;5030433;28;76078;-70
2021/05/26 01:53:37;;;;;;;;;;;19.50;54.40;;;;;;5032261;28;75092;-69
2021/05/26 01:56:02;;;;;;;;;;;19.50;54.60;;;;;;5031118;28;76651;-71
2021/05/26 01:58:28;;;;;;;;;;;19.50;54.70;;;;;;5032812;28;74409;-72
2021/05/26 02:00:54;;;;;;;;;;;19.50;54.70;;;;;;5030588;28;77170;-72
2021/05/26 02:03:19;;;;;;;;;;;19.50;54.70;;;;;;5032611;28;74475;-71
2021/05/26 02:05:45;;;;;;;;;;;19.50;54.70;;;;;;5032514;28;75182;-71
2021/05/26 02:08:10;;;;;;;;;;;19.50;54.90;;;;;;5032273;28;75584;-72
2021/05/26 02:13:20;;;;;;;;;;;19.40;55.00;;;;;;5032307;28;74849;-71
2021/05/26 02:15:46;;;;;;;;;;;19.40;55.20;;;;;;5032328;28;76129;-70
2021/05/26 02:18:11;;;;;;;;;;;19.40;55.40;;;;;;5032790;28;74762;-70
2021/05/26 02:20:37;;;;;;;;;;;19.40;55.20;;;;;;5031852;28;74906;-72
2021/05/26 02:23:03;;;;;;;;;;;19.40;55.30;;;;;;5032145;28;75550;-72
2021/05/26 02:25:28;;;;;;;;;;;19.30;55.40;;;;;;5032424;28;74578;-71
2021/05/26 02:27:54;;;;;;;;;;;19.30;55.30;;;;;;5030631;28;75355;-69
2021/05/26 02:30:20;;;;;;;;;;;19.30;55.40;;;;;;5030260;28;76417;-69
2021/05/26 02:32:45;;;;;;;;;;;19.40;55.50;;;;;;5030699;28;77306;-70
2021/05/26 02:35:11;;;;;;;;;;;19.40;55.40;;;;;;5031838;28;75207;-70
2021/05/26 02:37:39;;;;;;;;;;;19.30;55.30;;;;;;5030020;28;76875;-69
2021/05/26 02:40:05;;;;;;;;;;;19.30;55.10;;;;;;5030907;28;77723;-70
2021/05/26 02:42:30;;;;;;;;;;;19.20;55.40;;;;;;5030468;28;77070;-69
2021/05/26 02:44:56;;;;;;;;;;;19.20;55.60;;;;;;5032027;28;75620;-69
2021/05/26 02:47:22;;;;;;;;;;;19.10;55.70;;;;;;5032190;28;74542;-71
2021/05/26 02:49:48;;;;;;;;;;;19.10;55.50;;;;;;5030372;28;75703;-71
2021/05/26 02:52:13;;;;;;;;;;;19.00;55.40;;;;;;5030137;28;78324;-71
2021/05/26 02:54:39;;;;;;;;;;;19.00;55.80;;;;;;5030196;28;77677;-69
2021/05/26 02:57:05;;;;;;;;;;;18.90;56.00;;;;;;5031800;28;75084;-68
2021/05/26 02:59:30;;;;;;;;;;;18.90;56.00;;;;;;5030830;28;78482;-71
2021/05/26 03:01:56;;;;;;;;;;;18.80;55.80;;;;;;5030072;28;76648;-71
2021/05/26 03:04:22;;;;;;;;;;;18.70;56.30;;;;;;5029907;28;77221;-71
2021/05/26 03:06:48;;;;;;;;;;;18.60;56.60;;;;;;5034704;28;75114;-72
2021/05/26 03:09:14;;;;;;;;;;;18.60;56.60;;;;;;5034159;28;77042;-71
2021/05/26 03:11:39;;;;;;;;;;;18.60;56.60;;;;;;5033182;28;74675;-72
2021/05/26 03:14:05;;;;;;;;;;;18.50;56.50;;;;;;5033142;28;77246;-73
2021/05/26 03:16:31;;;;;;;;;;;18.50;56.50;;;;;;5033110;28;76677;-72
2021/05/26 03:18:56;;;;;;;;;;;18.50;57.00;;;;;;5035347;28;75831;-71
2021/05/26 03:21:22;;;;;;;;;;;18.50;57.10;;;;;;5033333;28;75709;-71
2021/05/26 03:23:47;;;;;;;;;;;18.40;57.50;;;;;;5035233;28;75488;-71
2021/05/26 03:26:14;;;;;;;;;;;18.40;57.40;;;;;;5035088;28;75094;-70
2021/05/26 03:28:40;;;;;;;;;;;18.40;57.20;;;;;;5033091;28;75487;-70
2021/05/26 03:31:05;;;;;;;;;;;18.40;57.40;;;;;;5035344;28;74426;-71
2021/05/26 03:33:31;;;;;;;;;;;18.40;57.30;;;;;;5034870;28;74415;-69
2021/05/26 03:35:57;;;;;;;;;;;18.40;57.40;;;;;;5033038;28;75748;-71
2021/05/26 03:38:22;;;;;;;;;;;18.30;57.50;;;;;;5033165;28;77195;-71
2021/05/26 03:40:48;;;;;;;;;;;18.30;57.60;;;;;;5034829;28;75609;-70
2021/05/26 03:43:13;;;;;;;;;;;18.20;57.80;;;;;;5034814;28;75153;-70
2021/05/26 03:45:39;;;;;;;;;;;18.30;57.70;;;;;;5033505;28;77065;-71
2021/05/26 03:48:05;;;;;;;;;;;18.30;57.60;;;;;;5034511;28;75087;-70
2021/05/26 03:50:31;;;;;;;;;;;18.20;57.80;;;;;;5032889;28;76183;-70
2021/05/26 03:52:57;;;;;;;;;;;18.20;57.70;;;;;;5034529;28;74923;-69
2021/05/26 03:55:23;;;;;;;;;;;18.20;57.90;;;;;;5034628;28;75357;-69
2021/05/26 03:57:49;;;;;;;;;;;18.20;58.00;;;;;;5034297;28;75643;-69
2021/05/26 04:00:16;;;;;;;;;;;18.20;58.10;;;;;;5032871;28;77890;-69
2021/05/26 04:02:42;;;;;;;;;;;18.10;58.00;;;;;;5034416;28;75177;-69
2021/05/26 04:05:07;;;;;;;;;;;18.10;58.10;;;;;;5034282;28;74940;-70
2021/05/26 04:07:33;;;;;;;;;;;18.10;58.10;;;;;;5032666;28;77311;-69
2021/05/26 04:09:59;;;;;;;;;;;18.00;58.20;;;;;;5032672;28;76702;-70
2021/05/26 04:12:27;;;;;;;;;;;18.00;58.40;;;;;;5032109;28;76839;-71
2021/05/26 04:14:52;;;;;;;;;;;18.00;58.40;;;;;;5034647;28;74522;-71
2021/05/26 04:17:18;;;;;;;;;;;18.00;58.40;;;;;;5033954;28;75035;-70
2021/05/26 04:19:44;;;;;;;;;;;18.00;58.40;;;;;;5034826;28;74812;-71
2021/05/26 04:22:09;;;;;;;;;;;18.00;58.40;;;;;;5033750;28;75286;-70
2021/05/26 04:24:35;;;;;;;;;;;18.00;58.50;;;;;;5034465;28;74563;-70
2021/05/26 04:27:01;;;;;;;;;;;18.00;58.60;;;;;;5032411;28;78080;-69
2021/05/26 04:29:26;;;;;;;;;;;18.00;58.50;;;;;;5032638;28;78163;-70
2021/05/26 04:31:52;;;;;;;;;;;18.00;58.40;;;;;;5032667;28;76087;-71
2021/05/26 04:34:17;;;;;;;;;;;18.00;58.60;;;;;;5032030;28;77623;-72
2021/05/26 04:36:43;;;;;;;;;;;18.00;58.90;;;;;;5032287;28;76143;-71
2021/05/26 04:39:09;;;;;;;;;;;18.00;58.80;;;;;;5034250;28;74517;-70
2021/05/26 04:41:34;;;;;;;;;;;18.00;58.90;;;;;;5033793;28;75093;-69
2021/05/26 04:44:00;;;;;;;;;;;18.00;58.90;;;;;;5031991;28;77963;-69
2021/05/26 04:46:26;;;;;;;;;;;18.00;58.80;;;;;;5032084;28;76773;-70
2021/05/26 04:48:52;;;;;;;;;;;18.00;58.90;;;;;;5032059;28;77309;-70
2021/05/26 04:51:17;;;;;;;;;;;18.10;59.00;;;;;;5033352;28;75023;-69
2021/05/26 04:53:43;;;;;;;;;;;18.10;58.90;;;;;;5032002;28;76023;-69
2021/05/26 04:56:09;;;;;;;;;;;18.10;58.90;;;;;;5033324;28;75283;-69
2021/05/26 04:58:34;;;;;;;;;;;18.10;59.00;;;;;;5033770;28;75033;-69
2021/05/26 05:01:00;;;;;;;;;;;18.10;59.00;;;;;;5031944;28;76910;-70
2021/05/26 05:03:25;;;;;;;;;;;18.10;59.10;;;;;;5031594;28;76393;-69
2021/05/26 05:05:51;;;;;;;;;;;18.10;59.00;;;;;;5032032;28;77424;-70
2021/05/26 05:08:17;;;;;;;;;;;18.20;59.00;;;;;;5031939;28;78135;-70
2021/05/26 05:10:42;;;;;;;;;;;18.20;58.90;;;;;;5031601;28;77198;-71
2021/05/26 05:13:08;;;;;;;;;;;18.20;58.60;;;;;;5031100;28;74660;-70
2021/05/26 05:15:33;;;;;;;;;;;18.20;58.20;;;;;;5031273;28;77194;-70
2021/05/26 05:17:59;;;;;;;;;;;18.20;58.10;;;;;;5033396;28;74412;-70
2021/05/26 05:20:25;;;;;;;;;;;18.20;58.40;;;;;;5031715;28;77192;-69
2021/05/26 05:22:51;;;;;;;;;;;18.20;58.10;;;;;;5032399;28;75153;-68
2021/05/26 05:25:17;;;;;;;;;;;18.10;58.00;;;;;;5032835;28;74452;-67
2021/05/26 05:27:43;;;;;;;;;;;18.10;58.10;;;;;;5032034;28;75149;-67
2021/05/26 05:30:09;;;;;;;;;;;18.20;57.90;;;;;;5032797;28;75178;-69
2021/05/26 05:32:34;;;;;;;;;;;18.20;57.80;;;;;;5033269;28;74883;-70
2021/05/26 05:35:00;;;;;;;;;;;18.30;57.70;;;;;;5045987;28;75919;-69
2021/05/26 05:37:26;;;;;;;;;;;18.30;57.60;;;;;;5048303;27;75574;-68
2021/05/26 05:39:52;;;;;;;;;;;18.30;57.50;;;;;;5050215;28;75754;-67
2021/05/26 05:42:18;;;;;;;;;;;18.30;57.50;;;;;;5047102;27;78446;-69
2021/05/26 05:44:44;;;;;;;;;;;18.30;57.60;;;;;;5052309;28;75969;-67
2021/05/26 05:47:10;;;;;;;;;;;18.30;57.60;;;;;;5053085;28;75132;-68
2021/05/26 05:49:35;;;;;;;;;;;18.30;57.60;;;;;;5051279;28;77160;-66
2021/05/26 05:52:01;;;;;;;;;;;18.40;57.60;;;;;;5051164;28;75323;-67
2021/05/26 05:54:26;;;;;;;;;;;18.40;57.60;;;;;;5050293;28;75366;-67
2021/05/26 05:56:52;;;;;;;;;;;18.40;57.50;;;;;;5051296;28;78089;-67
2021/05/26 05:59:18;;;;;;;;;;;18.50;57.00;;;;;;5052705;27;75115;-70
2021/05/26 06:01:43;;;;;;;;;;;18.50;56.70;;;;;;5052580;28;75220;-69
2021/05/26 06:04:09;;;;;;;;;;;18.50;56.70;;;;;;5050376;27;74597;-67
2021/05/26 06:06:34;;;;;;;;;;;18.50;56.30;;;;;;5050514;27;75150;-68
2021/05/26 06:09:03;;;;;;;;;;;18.50;56.10;;;;;;5052522;27;74523;-70
2021/05/26 06:11:29;;;;;;;;;;;18.50;56.00;;;;;;5050732;28;78091;-68
2021/05/26 06:13:54;;;;;;;;;;;18.50;55.90;;;;;;5051694;28;75208;-69
2021/05/26 06:16:20;;;;;;;;;;;18.60;55.80;;;;;;5049994;28;75671;-68
2021/05/26 06:18:46;;;;;;;;;;;18.70;55.70;;;;;;5050930;28;74608;-67
2021/05/26 06:21:11;;;;;;;;;;;18.70;55.40;;;;;;5050590;28;78097;-69
2021/05/26 06:23:37;;;;;;;;;;;18.80;55.10;;;;;;5050222;28;74576;-64
2021/05/26 06:26:03;;;;;;;;;;;18.90;54.70;;;;;;5050717;28;75343;-66
2021/05/26 06:28:28;;;;;;;;;;;18.90;54.70;;;;;;5052246;28;74521;-65
2021/05/26 06:30:57;;;;;;;;;;;19.00;54.70;;;;;;5052431;28;74561;-66
2021/05/26 06:33:23;;;;;;;;;;;19.00;54.50;;;;;;5049912;28;75797;-69
2021/05/26 06:35:50;;;;;;;;;;;19.00;54.30;;;;;;5050410;28;77361;-65
2021/05/26 06:38:16;;;;;;;;;;;19.00;54.10;;;;;;5050450;28;75683;-67
2021/05/26 06:40:42;;;;;;;;;;;19.00;54.30;;;;;;5055144;27;74658;-65
2021/05/26 06:43:07;;;;;;;;;;;19.10;54.20;;;;;;5053570;28;77603;-65
2021/05/26 06:45:33;;;;;;;;;;;19.10;54.20;;;;;;5055248;28;75274;-66
2021/05/26 06:47:58;;;;;;;;;;;19.20;54.00;;;;;;5053957;28;74503;-66
2021/05/26 06:50:24;;;;;;;;;;;19.20;54.00;;;;;;5063366;27;76578;-65
2021/05/26 06:52:49;;;;;;;;;;;19.20;53.90;;;;;;5055494;28;74603;-67
2021/05/26 06:55:15;;;;;;;;;;;19.30;53.50;;;;;;5054658;27;75056;-66
2021/05/26 06:57:41;;;;;;;;;;;19.30;53.80;;;;;;5054752;28;75207;-66
2021/05/26 07:00:07;;;;;;;;;;;19.30;53.70;;;;;;5053562;28;76304;-66
2021/05/26 07:02:32;;;;;;;;;;;19.30;53.80;;;;;;5053506;28;77490;-66
2021/05/26 07:04:58;;;;;;;;;;;19.30;54.00;;;;;;5054509;27;75094;-67
2021/05/26 07:07:24;;;;;;;;;;;19.30;54.20;;;;;;5056697;27;74617;-66
2021/05/26 07:09:49;;;;;;;;;;;19.20;54.10;;;;;;5063075;27;75291;-66
2021/05/26 07:12:15;;;;;;;;;;;19.20;54.10;;;;;;5073598;27;74621;-65
2021/05/26 07:14:41;;;;;;;;;;;19.30;54.50;;;;;;5066160;27;75406;-66
2021/05/26 07:17:07;;;;;;;;;;;19.40;54.00;;;;;;5054820;27;75544;-64
2021/05/26 07:19:33;;;;;;;;;;;19.40;53.60;;;;;;5054810;27;75042;-65
2021/05/26 07:21:58;;;;;;;;;;;19.50;53.30;;;;;;5054702;27;74479;-66
2021/05/26 07:24:24;;;;;;;;;;;19.50;53.20;;;;;;5054551;27;74623;-66
2021/05/26 07:26:49;;;;;;;;;;;19.50;52.70;;;;;;5054699;28;75282;-66
2021/05/26 07:29:15;;;;;;;;;;;19.50;52.90;;;;;;5054895;28;75354;-66
2021/05/26 07:31:41;;;;;;;;;;;19.50;53.00;;;;;;5053938;28;76289;-67
2021/05/26 07:34:07;;;;;;;;;;;19.50;53.00;;;;;;5055223;27;74592;-67
2021/05/26 07:36:33;;;;;;;;;;;19.40;53.40;;;;;;5067503;27;76025;-67
2021/05/26 07:38:59;;;;;;;;;;;19.30;53.90;;;;;;5054407;27;75202;-67
2021/05/26 07:41:25;;;;;;;;;;;19.20;53.90;;;;;;5051106;27;76978;-67
2021/05/26 07:43:51;;;;;;;;;;;19.20;54.00;;;;;;5053479;27;74685;-67
2021/05/26 07:46:16;;;;;;;;;;;19.20;54.10;;;;;;5054686;27;76654;-67
2021/05/26 07:48:43;;;;;;;;;;;19.30;54.10;;;;;;5054873;28;74490;-66
2021/05/26 07:51:09;;;;;;;;;;;19.40;53.50;;;;;;5052165;27;76574;-65
2021/05/26 07:53:35;;;;;;;;;;;19.60;53.30;;;;;;5052417;28;76173;-65
2021/05/26 07:56:02;;;;;;;;;;;19.90;53.00;;;;;;5054122;27;75487;-66
2021/05/26 07:58:27;;;;;;;;;;;20.20;52.40;;;;;;5053893;27;75007;-66
2021/05/26 08:00:53;;;;;;;;;;;20.40;51.70;;;;;;5054308;28;74874;-66
2021/05/26 08:03:19;;;;;;;;;;;20.40;51.40;;;;;;5052556;28;77431;-66
2021/05/26 08:05:44;;;;;;;;;;;20.50;51.10;;;;;;5051559;27;78343;-65
2021/05/26 08:08:10;;;;;;;;;;;20.50;51.10;;;;;;5052348;28;75370;-66
2021/05/26 08:10:35;;;;;;;;;;;20.50;51.10;;;;;;5054187;28;75277;-65
2021/05/26 08:13:01;;;;;;;;;;;20.50;51.10;;;;;;5058516;27;75105;-66
2021/05/26 08:15:27;;;;;;;;;;;20.40;51.20;;;;;;5063999;27;77118;-65
2021/05/26 08:17:52;;;;;;;;;;;20.50;51.30;;;;;;5052251;28;77608;-65
2021/05/26 08:20:18;;;;;;;;;;;20.40;51.30;;;;;;5038716;28;75075;-65
2021/05/26 08:22:43;;;;;;;;;;;20.40;51.30;;;;;;5031829;28;75392;-66
2021/05/26 08:25:09;;;;;;;;;;;20.40;51.30;;;;;;5038966;28;76109;-65
2021/05/26 08:27:35;;;;;;;;;;;20.50;51.30;;;;;;5053403;27;74553;-66
2021/05/26 08:30:01;;;;;;;;;;;20.60;50.90;;;;;;5052116;28;78661;-66
2021/05/26 08:32:27;;;;;;;;;;;20.70;50.90;;;;;;5052017;28;76283;-66
2021/05/26 08:34:55;;;;;;;;;;;20.70;50.70;;;;;;5052820;27;74645;-66
2021/05/26 08:37:21;;;;;;;;;;;20.80;50.40;;;;;;5053626;27;75066;-65
2021/05/26 08:39:46;;;;;;;;;;;20.90;50.50;;;;;;5051043;28;77159;-66
2021/05/26 08:42:14;;;;;;;;;;;20.90;50.10;;;;;;5083759;27;78676;-65
2021/05/26 08:44:40;;;;;;;;;;;20.90;50.20;;;;;;5049465;28;77589;-65
2021/05/26 08:47:06;;;;;;;;;;;21.00;50.10;;;;;;5051133;28;76740;-65
2021/05/26 08:49:32;;;;;;;;;;;21.00;50.20;;;;;;5051839;28;77614;-64
2021/05/26 08:52:01;;;;;;;;;;;21.10;50.00;;;;;;5052713;28;75167;-64
2021/05/26 08:54:27;;;;;;;;;;;21.20;49.80;;;;;;5053263;28;75616;-64
2021/05/26 08:56:53;;;;;;;;;;;21.30;49.80;;;;;;5050437;28;75258;-65
2021/05/26 08:59:19;;;;;;;;;;;21.40;49.30;;;;;;5050973;28;75092;-65
2021/05/26 09:01:48;;;;;;;;;;;21.40;49.40;;;;;;5050709;28;77406;-65
2021/05/26 09:04:28;;;;;;;;;;;21.40;48.90;;;;;;5050724;28;75658;-66
2021/05/26 09:07:05;;;;;;;;;;;21.20;49.40;;;;;;5050640;28;75167;-67
2021/05/26 09:09:33;;;;;;;;;;;21.30;49.80;;;;;;5050711;28;75138;-66
2021/05/26 09:11:58;;;;;;;;;;;21.40;49.40;;;;;;5051736;28;75203;-66
2021/05/26 09:14:35;;;;;;;;;;;21.50;49.10;;;;;;5049216;28;75175;-67
2021/05/26 09:17:08;;;;;;;;;;;21.50;49.40;;;;;;5049592;28;76807;-66
2021/05/26 09:19:33;;;;;;;;;;;21.60;48.70;;;;;;5052478;28;75506;-66
2021/05/26 09:22:02;;;;;;;;;;;21.70;48.50;;;;;;5050002;28;75813;-65
2021/05/26 09:24:29;;;;;;;;;;;21.60;48.80;;;;;;5049766;28;76604;-65
2021/05/26 09:27:01;;;;;;;;;;;21.70;48.80;;;;;;5050563;28;77544;-65
2021/05/26 09:29:31;;;;;;;;;;;21.80;48.90;;;;;;5052422;28;74416;-64
2021/05/26 09:32:10;;;;;;;;;;;21.90;48.80;;;;;;5050662;28;74619;-68
2021/05/26 09:34:40;;;;;;;;;;;22.10;48.20;;;;;;5051544;28;74581;-65
2021/05/26 09:37:06;;;;;;;;;;;22.20;48.10;;;;;;5052143;28;75305;-66
2021/05/26 09:39:47;;;;;;;;;;;22.30;48.40;;;;;;5052459;28;75496;-66
2021/05/26 09:42:22;;;;;;;;;;;22.40;47.90;;;;;;5051943;28;75465;-66
2021/05/26 09:45:04;;;;;;;;;;;22.60;47.30;;;;;;5052079;28;75055;-65
2021/05/26 09:47:43;;;;;;;;;;;22.80;47.40;;;;;;5050530;28;75426;-66
2021/05/26 09:50:27;;;;;;;;;;;22.90;47.10;;;;;;5052239;28;75880;-66
2021/05/26 09:52:58;;;;;;;;;;;22.90;46.50;;;;;;5051352;28;76917;-66
2021/05/26 09:55:25;;;;;;;;;;;23.00;46.60;;;;;;5050611;28;77476;-66
2021/05/26 09:57:51;;;;;;;;;;;23.00;46.30;;;;;;5050602;28;76177;-66
2021/05/26 10:00:17;;;;;;;;;;;23.00;46.20;;;;;;5052330;28;74496;-66
2021/05/26 10:02:43;;;;;;;;;;;23.00;46.50;;;;;;5050823;28;77117;-67
2021/05/26 10:05:09;;;;;;;;;;;23.10;46.10;;;;;;5050583;28;74684;-66
2021/05/26 10:07:36;;;;;;;;;;;23.10;46.40;;;;;;5051447;28;74684;-66
2021/05/26 10:10:02;;;;;;;;;;;23.20;46.30;;;;;;5050551;28;77609;-66
2021/05/26 10:12:31;;;;;;;;;;;23.30;46.30;;;;;;5050515;28;75111;-66
2021/05/26 10:14:59;;;;;;;;;;;23.40;45.90;;;;;;5048358;28;74610;-65
2021/05/26 10:17:33;;;;;;;;;;;23.30;46.10;;;;;;5051484;28;75151;-66
2021/05/26 10:19:58;;;;;;;;;;;23.40;45.90;;;;;;5051957;28;75113;-66
2021/05/26 10:22:24;;;;;;;;;;;23.70;45.70;;;;;;5050286;28;77520;-66
2021/05/26 10:24:50;;;;;;;;;;;23.80;44.50;;;;;;5050865;28;77694;-66
2021/05/26 10:27:35;;;;;;;;;;;23.90;44.70;;;;;;5051944;28;75656;-66
2021/05/26 10:30:02;;;;;;;;;;;24.00;44.30;;;;;;5051514;28;75821;-66
2021/05/26 10:32:29;;;;;;;;;;;24.20;44.20;;;;;;5052180;28;75017;-67
2021/05/26 10:34:55;;;;;;;;;;;24.40;43.50;;;;;;5050278;28;76783;-66
2021/05/26 10:37:23;;;;;;;;;;;24.50;43.40;;;;;;5051596;28;74926;-66
2021/05/26 10:39:49;;;;;;;;;;;24.80;42.90;;;;;;5050081;28;75631;-66
2021/05/26 10:42:28;;;;;;;;;;;25.00;42.00;;;;;;5050848;28;76686;-66
2021/05/26 10:45:04;;;;;;;;;;;25.30;42.20;;;;;;5050074;28;77417;-66
2021/05/26 10:47:39;;;;;;;;;;;25.60;41.70;;;;;;5051275;28;75027;-66
2021/05/26 10:50:04;;;;;;;;;;;25.90;41.20;;;;;;5049850;28;78557;-65
2021/05/26 10:52:50;;;;;;;;;;;26.20;40.30;;;;;;5050226;28;75701;-66
2021/05/26 10:55:33;;;;;;;;;;;26.40;40.40;;;;;;5051451;27;74821;-65
2021/05/26 10:58:14;;;;;;;;;;;26.70;40.20;;;;;;5049519;28;75773;-66
2021/05/26 11:01:08;;;;;;;;;;;27.10;39.50;;;;;;5049510;28;76484;-65
2021/05/26 11:03:35;;;;;;;;;;;27.50;38.60;;;;;;5051200;28;75514;-67
2021/05/26 11:06:01;;;;;;;;;;;27.80;37.90;;;;;;5051380;28;75301;-67
2021/05/26 11:11:22;;;;;;;;;;;28.40;37.10;;;;;;5048361;27;75176;-67
2021/05/26 11:14:01;;;;;;;;;;;28.70;36.70;;;;;;5051035;28;75377;-66
2021/05/26 11:16:36;;;;;;;;;;;29.10;35.80;;;;;;5048012;28;75872;-67
2021/05/26 11:19:10;;;;;;;;;;;29.40;35.80;;;;;;5046901;28;75796;-67
2021/05/26 11:21:36;;;;;;;;;;;29.60;34.40;;;;;;5049331;28;78073;-66
2021/05/26 11:24:01;;;;;;;;;;;30.00;34.60;;;;;;5049652;28;76963;-66
2021/05/26 11:26:35;;;;;;;;;;;30.50;33.40;;;;;;5052684;27;75249;-67
2021/05/26 11:29:01;;;;;;;;;;;31.10;33.30;;;;;;5052929;28;75626;-67
2021/05/26 11:31:27;;;;;;;;;;;31.80;32.50;;;;;;5054485;28;75061;-70
2021/05/26 11:33:54;;;;;;;;;;;32.20;30.60;;;;;;5052369;28;77466;-67
2021/05/26 11:36:19;;;;;;;;;;;32.40;31.00;;;;;;5053128;28;75230;-67
2021/05/26 11:38:46;;;;;;;;;;;33.30;30.80;;;;;;5052444;28;75260;-68
2021/05/26 11:41:15;;;;;;;;;;;34.70;29.10;;;;;;5052579;28;76009;-66
2021/05/26 11:43:41;;;;;;;;;;;36.20;27.30;;;;;;5052019;28;75242;-68
2021/05/26 11:46:08;;;;;;;;;;;37.50;25.90;;;;;;5055000;27;74625;-66
2021/05/26 11:48:34;;;;;;;;;;;38.40;24.70;;;;;;5056157;27;75924;-66
2021/05/26 11:51:00;;;;;;;;;;;39.10;24.40;;;;;;5052558;28;76073;-71
2021/05/26 11:53:26;;;;;;;;;;;40.00;23.20;;;;;;5052951;28;76508;-68
2021/05/26 11:55:58;;;;;;;;;;;41.00;22.60;;;;;;5054180;28;74643;-68
2021/05/26 11:58:32;;;;;;;;;;;41.70;21.90;;;;;;5054178;28;75191;-68
2021/05/26 12:01:09;;;;;;;;;;;42.20;21.30;;;;;;5054226;28;75753;-69
2021/05/26 12:03:35;;;;;;;;;;;42.70;21.30;;;;;;5052382;28;78150;-67
2021/05/26 12:06:01;;;;;;;;;;;43.30;20.90;;;;;;5052348;28;77935;-68
2021/05/26 12:08:28;;;;;;;;;;;44.00;20.50;;;;;;5054069;28;74595;-68
2021/05/26 12:10:55;;;;;;;;;;;44.70;20.20;;;;;;5052639;28;78085;-68
2021/05/26 12:13:28;;;;;;;;;;;45.30;19.60;;;;;;5053884;27;75197;-68
2021/05/26 12:15:56;;;;;;;;;;;45.30;19.70;;;;;;5052550;28;76313;-67
2021/05/26 12:18:22;;;;;;;;;;;45.40;19.40;;;;;;5052120;28;77525;-67
2021/05/26 12:20:49;;;;;;;;;;;45.70;19.30;;;;;;5052516;28;76355;-68
2021/05/26 12:23:28;;;;;;;;;;;45.90;18.60;;;;;;5052461;28;76235;-70
2021/05/26 12:25:54;;;;;;;;;;;46.00;18.30;;;;;;5053921;27;75201;-69
2021/05/26 12:28:20;;;;;;;;;;;45.50;19.40;;;;;;5053949;27;75304;-69
2021/05/26 12:30:47;;;;;;;;;;;45.90;18.80;;;;;;5053551;27;75184;-69
2021/05/26 12:33:13;;;;;;;;;;;46.10;18.10;;;;;;5053981;27;75220;-69
2021/05/26 12:35:38;;;;;;;;;;;46.60;18.90;;;;;;5053453;28;75224;-69
2021/05/26 12:38:20;;;;;;;;;;;47.30;18.60;;;;;;5053373;27;75399;-68
2021/05/26 12:40:46;;;;;;;;;;;47.90;18.40;;;;;;5051210;27;74971;-70
2021/05/26 12:43:25;;;;;;;;;;;48.00;17.90;;;;;;5051824;27;75160;-69
2021/05/26 12:45:51;;;;;;;;;;;48.50;18.10;;;;;;5053670;27;75441;-69
2021/05/26 12:48:17;;;;;;;;;;;49.50;17.90;;;;;;5051856;28;76557;-69
2021/05/26 12:50:44;;;;;;;;;;;50.10;17.30;;;;;;5053825;27;75106;-69
2021/05/26 12:53:11;;;;;;;;;;;50.60;17.00;;;;;;5051769;28;77481;-69
2021/05/26 12:55:37;;;;;;;;;;;50.30;16.40;;;;;;5052040;28;75423;-69
2021/05/26 12:58:03;;;;;;;;;;;49.50;16.90;;;;;;5050923;27;75459;-69
2021/05/26 13:00:29;;;;;;;;;;;49.70;17.40;;;;;;5052079;28;76415;-69
2021/05/26 13:03:05;;;;;;;;;;;50.50;17.10;;;;;;5053580;28;75340;-69
2021/05/26 13:05:39;;;;;;;;;;;51.30;15.10;;;;;;5051729;28;76035;-68
2021/05/26 13:08:09;;;;;;;;;;;51.50;16.50;;;;;;5052059;28;75725;-67
2021/05/26 13:10:44;;;;;;;;;;;52.00;16.40;;;;;;5051739;28;76264;-68
2021/05/26 13:13:17;;;;;;;;;;;52.90;16.10;;;;;;5053520;28;74648;-68
2021/05/26 13:15:44;;;;;;;;;;;53.40;15.40;;;;;;5051751;28;77216;-69
2021/05/26 13:18:09;;;;;;;;;;;53.60;15.40;;;;;;5051849;28;75736;-69
2021/05/26 13:20:36;;;;;;;;;;;53.20;14.00;;;;;;5051560;28;76130;-69
2021/05/26 13:23:03;;;;;;;;;;;52.90;15.20;;;;;;5051946;28;76606;-69
2021/05/26 13:25:29;;;;;;;;;;;53.30;14.90;;;;;;5053556;28;75079;-69
2021/05/26 13:27:55;;;;;;;;;;;53.20;15.00;;;;;;5053219;28;75091;-69
2021/05/26 13:30:23;;;;;;;;;;;53.00;14.10;;;;;;5053192;28;75647;-71
2021/05/26 13:32:49;;;;;;;;;;;51.30;15.30;;;;;;5053215;28;74597;-69
2021/05/26 13:35:14;;;;;;;;;;;51.90;14.20;;;;;;5052865;28;76482;-71
2021/05/26 13:37:41;;;;;;;;;;;52.50;14.90;;;;;;5052643;28;74630;-70
2021/05/26 13:40:07;;;;;;;;;;;52.40;15.00;;;;;;5051085;27;75394;-69
2021/05/26 13:42:39;;;;;;;;;;;52.70;15.00;;;;;;5065443;27;75768;-69
2021/05/26 13:45:06;;;;;;;;;;;50.90;15.70;;;;;;5061610;27;77341;-68
2021/05/26 13:47:32;;;;;;;;;;;49.90;15.70;;;;;;5042212;27;77242;-69
2021/05/26 13:49:58;;;;;;;;;;;46.90;16.60;;;;;;5049610;28;76613;-67
2021/05/26 13:52:24;;;;;;;;;;;47.40;16.70;;;;;;5052458;28;74678;-67
2021/05/26 13:54:50;;;;;;;;;;;49.20;16.00;;;;;;5052438;28;74627;-68
2021/05/26 13:57:15;;;;;;;;;;;50.70;15.50;;;;;;5051714;27;74553;-69
2021/05/26 13:59:41;;;;;;;;;;;51.50;15.00;;;;;;5052207;28;75116;-69
2021/05/26 14:02:07;;;;;;;;;;;52.50;14.90;;;;;;5050333;27;76940;-68
2021/05/26 14:04:33;;;;;;;;;;;53.60;14.20;;;;;;5050806;28;78225;-68
2021/05/26 14:06:59;;;;;;;;;;;53.30;13.00;;;;;;5051558;28;75346;-69
2021/05/26 14:09:24;;;;;;;;;;;53.10;14.10;;;;;;5050721;28;76444;-69
2021/05/26 14:11:50;;;;;;;;;;;52.00;13.20;;;;;;5049584;28;75244;-70
2021/05/26 14:14:16;;;;;;;;;;;49.70;14.10;;;;;;5052072;27;75622;-69
2021/05/26 14:16:41;;;;;;;;;;;50.00;13.80;;;;;;5051487;28;74704;-69
2021/05/26 14:19:07;;;;;;;;;;;49.50;14.80;;;;;;5052824;27;75098;-69
2021/05/26 14:21:33;;;;;;;;;;;49.80;15.20;;;;;;5052727;27;75670;-67